Time;durP1;ratioP1;P1;durP2;ratioP2;P2;SDS_P1;SDS_P2;PMS_P1;PMS_P2;Temp;Humidity;BMP_temperature;BMP_pressure;BME280_temperature;BME280_humidity;BME280_pressure;Samples;Min_cycle;Max_cycle;Signal;HPM_P1;HPM_P2
2021/12/30 00:07:34;;;;;;;41.80;27.70;;;;;;;1.47;88.54;98941.11;435055;1306;142012;-71
2021/12/30 00:17:39;;;;;;;42.40;29.10;;;;;;;1.45;88.56;98940.84;433879;1312;141032;-70
2021/12/30 00:27:45;;;;;;;42.30;28.00;;;;;;;1.48;88.49;98941.09;434030;1310;142393;-72
2021/12/30 00:37:51;;;;;;;40.40;27.60;;;;;;;1.44;88.58;98933.78;426167;1312;141219;-72
2021/12/30 00:47:57;;;;;;;41.70;28.50;;;;;;;1.46;88.61;98934.58;418534;1310;141055;-70
2021/12/30 00:58:04;;;;;;;38.60;27.90;;;;;;;1.45;88.76;98933.61;429533;1312;141458;-68
2021/12/30 01:08:10;;;;;;;40.70;31.00;;;;;;;1.41;88.65;98943.05;434770;1312;153223;-68
2021/12/30 01:18:29;;;;;;;42.10;28.60;;;;;;;1.40;88.73;98952.73;432834;1309;141768;-68
2021/12/30 01:28:35;;;;;;;36.10;27.70;;;;;;;1.39;88.73;98947.23;434823;1312;141393;-67
2021/12/30 01:38:41;;;;;;;40.60;26.70;;;;;;;1.42;88.79;98946.45;430584;1310;142632;-68
2021/12/30 01:48:47;;;;;;;43.60;29.80;;;;;;;1.43;88.75;98947.98;433479;1312;141267;-68
2021/12/30 01:58:54;;;;;;;44.90;32.10;;;;;;;1.39;88.86;98962.06;435188;1310;142036;-67
2021/12/30 02:09:00;;;;;;;46.20;31.10;;;;;;;1.42;89.02;98974.40;433927;1307;141488;-67
2021/12/30 02:19:06;;;;;;;48.20;28.60;;;;;;;1.38;89.02;98979.70;419820;1309;140771;-67
2021/12/30 02:29:12;;;;;;;45.80;28.70;;;;;;;1.37;89.24;98968.02;418977;1311;141104;-64
2021/12/30 02:39:21;;;;;;;48.30;30.10;;;;;;;1.36;89.29;98965.13;424166;1310;141677;-67
2021/12/30 02:49:27;;;;;;;59.90;31.20;;;;;;;1.34;89.40;98984.35;420815;1311;140755;-66
2021/12/30 02:59:33;;;;;;;46.00;29.70;;;;;;;1.32;89.46;98989.58;433913;1312;142152;-67
2021/12/30 03:09:39;;;;;;;49.10;30.00;;;;;;;1.33;89.51;98994.53;425370;1309;141993;-67
2021/12/30 03:19:45;;;;;;;43.20;27.70;;;;;;;1.38;89.64;99002.66;433601;1312;141453;-66
2021/12/30 03:29:51;;;;;;;42.40;25.70;;;;;;;1.43;89.64;99008.52;423801;1312;141582;-67
2021/12/30 03:39:56;;;;;;;40.30;26.40;;;;;;;1.43;89.64;99016.80;421751;1311;140716;-67
2021/12/30 03:50:02;;;;;;;42.90;26.50;;;;;;;1.43;89.72;99029.55;426214;1310;141202;-66
2021/12/30 04:00:10;;;;;;;42.10;25.80;;;;;;;1.38;89.71;99043.34;422179;1310;141713;-65
2021/12/30 04:10:19;;;;;;;47.30;28.60;;;;;;;1.36;89.75;99047.38;429283;1309;140787;-67
2021/12/30 04:20:25;;;;;;;39.80;25.70;;;;;;;1.38;89.74;99052.34;427890;1309;140991;-67
2021/12/30 04:30:32;;;;;;;44.10;27.10;;;;;;;1.35;89.74;99047.09;434351;1310;141522;-67
2021/12/30 04:40:38;;;;;;;43.10;26.80;;;;;;;1.41;89.85;99053.09;428961;1309;142666;-67
2021/12/30 04:50:45;;;;;;;35.80;23.90;;;;;;;1.49;89.92;99049.88;425288;1309;142387;-67
2021/12/30 05:00:51;;;;;;;44.50;24.50;;;;;;;1.50;89.98;99054.83;434278;1307;141800;-66
2021/12/30 05:10:57;;;;;;;45.00;27.70;;;;;;;1.50;89.90;99032.58;434230;1310;141251;-66
2021/12/30 05:21:05;;;;;;;44.10;26.20;;;;;;;1.53;90.06;99042.66;434298;1312;141352;-66
2021/12/30 05:31:10;;;;;;;48.00;28.10;;;;;;;1.63;90.03;99057.30;430959;1309;141675;-67
2021/12/30 05:41:16;;;;;;;42.00;25.90;;;;;;;1.68;89.85;99067.84;434975;1312;142263;-66
2021/12/30 05:51:22;;;;;;;39.50;25.00;;;;;;;1.67;89.88;99094.27;432715;1310;142790;-67
2021/12/30 06:01:28;;;;;;;38.00;24.20;;;;;;;1.68;89.94;99095.45;430421;1309;141623;-68
2021/12/30 06:11:34;;;;;;;45.80;28.20;;;;;;;1.72;89.90;99098.59;434056;1310;145698;-68
2021/12/30 06:21:40;;;;;;;42.90;25.90;;;;;;;1.77;89.83;99098.08;433287;1307;142010;-67
2021/12/30 06:31:45;;;;;;;44.30;26.20;;;;;;;1.77;89.83;99099.11;434483;1307;141533;-67
2021/12/30 06:41:51;;;;;;;39.60;24.60;;;;;;;1.79;89.88;99109.39;425766;1311;141813;-67
2021/12/30 06:51:57;;;;;;;37.80;24.50;;;;;;;1.82;89.91;99107.05;434014;1307;144109;-67
2021/12/30 07:02:04;;;;;;;41.20;25.50;;;;;;;1.85;89.94;99115.93;435205;1309;152479;-67
2021/12/30 07:12:11;;;;;;;37.80;25.30;;;;;;;1.89;89.90;99130.27;431648;1309;142266;-65
2021/12/30 07:22:17;;;;;;;36.70;24.90;;;;;;;1.92;89.98;99147.09;430786;1311;142045;-67
2021/12/30 07:32:43;;;;;;;34.80;22.90;;;;;;;1.97;90.03;99143.63;433720;1310;143111;-67
2021/12/30 07:42:49;;;;;;;39.70;29.30;;;;;;;2.01;89.80;99136.92;432889;1307;141350;-66
2021/12/30 07:52:55;;;;;;;37.50;27.30;;;;;;;2.04;89.88;99136.63;431712;1310;143893;-67
2021/12/30 08:03:01;;;;;;;38.10;28.20;;;;;;;2.11;89.77;99138.81;434824;1310;141741;-67
2021/12/30 08:13:07;;;;;;;42.80;31.50;;;;;;;2.27;89.90;99148.59;431173;1310;141165;-66
2021/12/30 08:23:13;;;;;;;41.50;28.50;;;;;;;2.47;89.69;99153.91;432409;1310;141809;-63
2021/12/30 08:33:19;;;;;;;41.50;27.90;;;;;;;2.60;89.72;99160.85;434345;1310;142038;-66
2021/12/30 08:43:24;;;;;;;63.90;38.00;;;;;;;2.74;89.43;99173.96;435117;1312;141532;-60
2021/12/30 08:53:30;;;;;;;36.90;25.00;;;;;;;2.99;89.55;99173.36;435186;1310;141550;-61
2021/12/30 09:03:36;;;;;;;39.40;26.10;;;;;;;3.22;89.18;99163.95;434411;1309;142852;-63
2021/12/30 09:13:43;;;;;;;34.30;24.50;;;;;;;3.40;89.11;99162.73;434955;1310;141184;-65
2021/12/30 09:23:49;;;;;;;31.10;21.20;;;;;;;3.45;88.66;99154.20;431253;1307;141715;-62
2021/12/30 09:33:55;;;;;;;35.50;24.40;;;;;;;3.42;88.30;99164.03;433971;1311;141092;-70
2021/12/30 09:44:01;;;;;;;48.00;28.70;;;;;;;3.55;88.18;99156.77;434569;1309;141931;-61
2021/12/30 09:54:07;;;;;;;45.30;28.30;;;;;;;3.68;87.68;99152.73;432038;1310;141569;-64
2021/12/30 10:04:14;;;;;;;32.50;23.30;;;;;;;3.66;87.53;99153.50;428086;1309;141849;-65
2021/12/30 10:14:32;;;;;;;30.70;22.60;;;;;;;3.64;87.53;99160.53;426089;1309;142224;-61
2021/12/30 10:24:38;;;;;;;28.40;22.00;;;;;;;3.70;87.76;99138.14;434212;1309;142026;-62
2021/12/30 10:35:04;;;;;;;31.10;22.00;;;;;;;3.82;87.48;99129.81;428253;1309;141581;-61
2021/12/30 10:45:11;;;;;;;33.20;24.40;;;;;;;3.98;87.35;99131.52;419349;1312;141040;-60
2021/12/30 10:55:17;;;;;;;31.40;24.80;;;;;;;4.09;87.03;99119.80;434853;1310;141272;-64
2021/12/30 11:05:23;;;;;;;25.40;20.30;;;;;;;4.11;86.84;99108.80;429368;1310;141545;-63
2021/12/30 11:15:33;;;;;;;24.70;19.40;;;;;;;4.10;86.79;99102.29;433463;1309;141626;-61
2021/12/30 11:25:38;;;;;;;28.70;20.40;;;;;;;4.06;86.73;99089.95;428546;1312;142208;-62
2021/12/30 11:35:45;;;;;;;31.70;21.20;;;;;;;3.98;86.97;99084.23;435141;1311;141884;-69
2021/12/30 11:45:51;;;;;;;30.00;22.20;;;;;;;3.94;86.87;99082.70;434378;1312;141852;-59
2021/12/30 11:55:59;;;;;;;34.00;23.70;;;;;;;3.83;87.12;99089.08;435033;1306;142123;-60
2021/12/30 12:06:07;;;;;;;24.80;19.50;;;;;;;3.65;87.10;99105.77;434177;1307;150850;-60
2021/12/30 12:16:13;;;;;;;28.90;19.40;;;;;;;3.44;87.47;99105.45;434377;1310;142125;-58
2021/12/30 12:26:21;;;;;;;28.00;22.10;;;;;;;3.27;87.89;99123.30;433730;1306;144220;-59
2021/12/30 12:37:02;;;;;;;32.00;21.60;;;;;;;3.21;88.16;99120.41;406953;1340;623050;-62
2021/12/30 12:47:19;;;;;;;33.20;22.50;;;;;;;3.13;88.27;99121.09;409737;1323;141146;-61
2021/12/30 12:57:25;;;;;;;32.10;23.50;;;;;;;3.07;88.67;99139.48;409505;1321;141337;-61
2021/12/30 13:07:36;;;;;;;29.90;20.60;;;;;;;2.97;88.80;99145.42;412686;1321;140200;-62
2021/12/30 13:17:44;;;;;;;27.80;20.30;;;;;;;2.97;89.28;99153.02;418697;1324;141594;-62
2021/12/30 13:27:51;;;;;;;27.20;19.10;;;;;;;3.04;89.63;99145.64;423008;1333;141917;-61
2021/12/30 13:38:09;;;;;;;26.60;18.60;;;;;;;3.15;89.91;99145.22;424191;1331;141083;-64
2021/12/30 13:48:19;;;;;;;26.20;18.00;;;;;;;3.22;89.81;99143.39;423525;1324;141252;-63
2021/12/30 13:58:27;;;;;;;21.00;14.30;;;;;;;3.28;89.71;99153.00;424147;1331;140514;-62
2021/12/30 14:08:33;;;;;;;20.60;14.00;;;;;;;3.34;89.94;99151.35;424317;1331;140915;-60
2021/12/30 14:18:40;;;;;;;20.00;14.80;;;;;;;3.36;90.10;99158.39;423340;1331;142430;-65
2021/12/30 14:29:04;;;;;;;22.70;15.90;;;;;;;3.34;90.32;99160.17;424078;1331;141929;-64
2021/12/30 14:39:26;;;;;;;24.20;16.10;;;;;;;3.32;90.69;99158.70;423390;1330;143072;-65
2021/12/30 14:49:33;;;;;;;29.30;18.90;;;;;;;3.32;90.53;99142.46;423992;1330;142147;-68
2021/12/30 14:59:40;;;;;;;30.50;18.50;;;;;;;3.29;90.77;99156.59;415029;1319;142732;-62
2021/12/30 15:09:50;;;;;;;24.10;15.70;;;;;;;3.23;91.00;99166.00;418869;1321;143019;-61
2021/12/30 15:19:56;;;;;;;24.40;15.80;;;;;;;3.15;91.08;99183.79;424162;1334;142186;-61
2021/12/30 15:30:04;;;;;;;27.60;18.70;;;;;;;3.14;91.33;99205.64;423426;1331;142049;-61
2021/12/30 15:40:18;;;;;;;32.20;16.90;;;;;;;3.21;91.73;99210.02;418886;1321;141210;-64
2021/12/30 15:50:25;;;;;;;29.80;18.50;;;;;;;3.27;91.63;99212.90;424294;1331;140635;-60
2021/12/30 16:00:32;;;;;;;25.10;16.80;;;;;;;3.31;91.88;99208.73;415636;1321;142722;-59
2021/12/30 16:10:38;;;;;;;36.60;25.60;;;;;;;3.35;91.98;99174.18;413080;1321;141633;-60
2021/12/30 16:20:47;;;;;;;35.30;24.70;;;;;;;3.32;91.92;99161.82;424054;1328;142557;-60
2021/12/30 16:30:53;;;;;;;55.20;33.60;;;;;;;3.33;92.36;99167.13;423207;1334;141772;-60
2021/12/30 16:40:59;;;;;;;66.50;44.00;;;;;;;3.37;92.44;99164.04;417412;1316;142428;-58
2021/12/30 16:51:06;;;;;;;73.70;51.50;;;;;;;3.46;92.62;99136.71;422153;1327;140911;-61
2021/12/30 17:01:12;;;;;;;50.10;30.60;;;;;;;3.61;93.04;99156.30;415976;1319;141902;-59
2021/12/30 17:11:18;;;;;;;47.60;30.00;;;;;;;3.74;93.33;99146.73;421756;1321;141573;-60
2021/12/30 17:21:24;;;;;;;43.20;29.70;;;;;;;3.92;93.51;99163.15;423255;1331;142639;-60
2021/12/30 17:31:30;;;;;;;52.90;33.20;;;;;;;4.07;93.55;99183.48;423959;1331;141944;-60
2021/12/30 17:41:36;;;;;;;40.20;26.50;;;;;;;4.17;93.55;99191.52;424047;1327;141616;-61
2021/12/30 17:51:42;;;;;;;35.20;25.10;;;;;;;4.18;93.24;99185.92;414326;1321;144649;-60
2021/12/30 18:01:48;;;;;;;47.90;27.80;;;;;;;4.16;93.35;99186.70;423575;1323;142540;-58
2021/12/30 18:11:54;;;;;;;27.80;20.30;;;;;;;4.15;93.03;99175.66;422635;1326;141147;-61
2021/12/30 18:22:05;;;;;;;31.70;22.30;;;;;;;4.14;93.04;99186.25;424005;1330;141888;-59
2021/12/30 18:32:11;;;;;;;35.20;23.10;;;;;;;4.17;92.54;99175.04;423991;1334;141627;-59
2021/12/30 18:42:16;;;;;;;43.80;29.60;;;;;;;4.18;92.53;99168.44;423375;1331;142232;-60
2021/12/30 18:52:22;;;;;;;58.30;33.80;;;;;;;4.16;92.43;99162.77;423942;1330;142665;-60
2021/12/30 19:02:28;;;;;;;40.50;27.00;;;;;;;4.17;92.68;99146.29;422209;1319;141893;-60
2021/12/30 19:12:38;;;;;;;35.00;23.80;;;;;;;4.21;92.77;99166.40;422749;1325;141603;-59
2021/12/30 19:22:45;;;;;;;34.60;22.70;;;;;;;4.23;92.51;99163.71;423954;1330;142052;-59
2021/12/30 19:32:52;;;;;;;32.50;21.50;;;;;;;4.26;92.71;99167.57;420109;1321;142815;-60
2021/12/30 19:43:00;;;;;;;41.70;23.40;;;;;;;4.28;92.45;99169.92;423352;1333;141777;-60
2021/12/30 19:53:07;;;;;;;48.20;26.60;;;;;;;4.27;92.62;99161.11;424112;1330;142287;-65
2021/12/30 20:03:13;;;;;;;43.20;26.10;;;;;;;4.29;92.47;99148.20;419533;1324;141937;-65
2021/12/30 20:13:20;;;;;;;40.70;27.60;;;;;;;4.40;92.54;99148.58;416224;1316;143373;-65
2021/12/30 20:23:25;;;;;;;56.50;32.40;;;;;;;4.48;92.73;99160.86;416152;1325;141349;-69
2021/12/30 20:33:33;;;;;;;42.00;26.10;;;;;;;4.55;92.89;99160.01;419890;1318;142881;-65
2021/12/30 20:43:42;;;;;;;34.20;21.60;;;;;;;4.59;92.83;99149.42;424935;1324;141943;-66
2021/12/30 20:53:51;;;;;;;25.30;17.40;;;;;;;4.65;92.73;99141.54;424593;1322;141771;-65
2021/12/30 21:03:57;;;;;;;26.30;17.30;;;;;;;4.72;92.81;99145.56;424036;1331;142369;-64
2021/12/30 21:14:04;;;;;;;22.50;15.00;;;;;;;4.78;92.70;99152.54;424768;1327;142057;-64
2021/12/30 21:24:10;;;;;;;20.30;15.20;;;;;;;4.83;92.78;99144.36;423874;1327;142062;-64
2021/12/30 21:34:17;;;;;;;20.20;14.20;;;;;;;4.92;93.01;99141.15;424760;1329;141313;-70
2021/12/30 21:44:23;;;;;;;21.50;14.10;;;;;;;4.93;92.96;99136.77;424863;1321;140885;-69
2021/12/30 21:54:30;;;;;;;19.70;15.50;;;;;;;4.86;93.14;99139.52;424054;1327;143237;-71
2021/12/30 22:04:35;;;;;;;;;;;;;;;4.84;93.11;99135.79;424837;1327;141178;-70
2021/12/30 22:14:41;;;;;;;18.90;13.10;;;;;;;4.85;93.43;99128.96;424925;1323;127983;-70
2021/12/30 22:24:46;;;;;;;18.60;13.00;;;;;;;4.83;93.41;99124.55;424010;1330;141729;-70
2021/12/30 22:34:52;;;;;;;16.20;11.80;;;;;;;4.85;93.68;99132.27;424832;1324;142227;-70
2021/12/30 22:44:58;;;;;;;13.50;11.90;;;;;;;4.86;93.61;99133.94;424882;1325;140934;-71
2021/12/30 22:55:07;;;;;;;17.10;11.80;;;;;;;4.91;93.82;99135.80;424581;1323;141451;-70
2021/12/30 23:05:13;;;;;;;15.00;11.70;;;;;;;5.00;93.93;99132.92;422893;1315;141294;-70
2021/12/30 23:15:19;;;;;;;13.70;10.70;;;;;;;5.17;94.26;99131.46;424106;1327;142269;-68
2021/12/30 23:25:25;;;;;;;17.70;7.80;;;;;;;5.36;94.41;99124.75;423357;1314;141075;-61
2021/12/30 23:35:31;;;;;;;6.80;5.20;;;;;;;5.58;94.99;99121.94;424743;1323;141690;-62
2021/12/30 23:45:37;;;;;;;5.30;4.40;;;;;;;5.90;95.55;99112.69;424098;1325;142597;-62
2021/12/30 23:55:43;;;;;;;4.80;4.40;;;;;;;6.26;96.17;99104.72;424939;1327;142758;-62
